Summerfield, Ohio
Current Conditions -  °F | °C
As of 2:53 PM on Sunday 23 Nov 2014 (Local Time) from KZZV Reporting Station
Clear Clear  
Wind Chill: 61°   Ceiling: Unl
Heat Index: 61°   Visibility: 10mi
Dew Point: 38°   Wind: 12mph
Humidity: 42%   Direction: 140°SE
Pressure: 29.81"   Gusts: NA
Location:  39.8°N, 81.34°W
Report Text: KZZV 231953Z AUTO 14010KT 10SM CLR 16/03 A2981 RMK AO2 SLP092 T01610033
Loading
Personal Weather Stations






























Interactive Weather Map New forecast layout! Learn more

10-Day Weather Forecast

Advertisements
Track Severe Weather on mobile